KLOM

Wings Field Airport

Philadelphia, Pennsylvania, USA
METAR KLOM 162135Z AUTO 35003KT 7SM OVC014 03/03 A2984 RMK AO1
Observed Flight Rules
Dec-16 @ 21:35 UTC (27 minutes ago) Marginal Visual Flight Rules
Wind Visibility Clouds
350° at 3 knots 7 miles
  • Overcast at 1,400' AGL
Temperatures Readings
Current 3°C / 37°F
Dewpoint 3°C / 37°F
Humidity 100%
Altimeter 29.84" Hg
Pressure 1010 hPa
Elevation 92
METAR KLOM 162135Z AUTO 35003KT 7SM OVC014 03/03 A2984 RMK AO1
Observed Flight Rules
Dec-16 @ 21:35 UTC
(27 minutes ago)
MVFR
Wind Visibility
350° at 3 knots 7 miles
Clouds
  • Overcast at 1,400' AGL
Temperature Dewpoint
3°C / 37°F 3°C / 37°F
Humidity Altimeter Pressure
100% 29.84" Hg 1010 hPa